Time;durP1;ratioP1;P1;durP2;ratioP2;P2;SDS_P1;SDS_P2;PMS_P1;PMS_P2;Temp;Humidity;BMP_temperature;BMP_pressure;BME280_temperature;BME280_humidity;BME280_pressure;Samples;Min_cycle;Max_cycle;Signal;HPM_P1;HPM_P2
2023/03/06 00:02:03;;;;;;;2.50;0.77;;;;;;;;;;5026727;28;20057;-65
2023/03/06 00:04:29;;;;;;;3.28;1.27;;;;;;;;;;5028009;28;20033;-64
2023/03/06 00:06:55;;;;;;;1.90;1.02;;;;;;;;;;5008928;28;20045;-65
2023/03/06 00:09:21;;;;;;;2.83;1.15;;;;;;;;;;5026849;28;20391;-65
2023/03/06 00:11:47;;;;;;;1.88;1.27;;;;;;;;;;5024693;28;20129;-65
2023/03/06 00:14:14;;;;;;;4.13;1.17;;;;;;;;;;5027458;28;20120;-65
2023/03/06 00:16:40;;;;;;;3.60;0.98;;;;;;;;;;4999582;28;20399;-65
2023/03/06 00:19:07;;;;;;;6.15;1.95;;;;;;;;;;5025806;28;20476;-65
2023/03/06 00:21:33;;;;;;;1.83;1.00;;;;;;;;;;5025730;28;20056;-65
2023/03/06 00:23:59;;;;;;;3.28;1.35;;;;;;;;;;5024910;28;20075;-65
2023/03/06 00:26:25;;;;;;;2.15;1.17;;;;;;;;;;5026375;28;20487;-66
2023/03/06 00:28:51;;;;;;;4.20;1.15;;;;;;;;;;5027436;28;20064;-65
2023/03/06 00:31:17;;;;;;;3.60;1.25;;;;;;;;;;5027242;28;20038;-66
2023/03/06 00:33:44;;;;;;;4.10;1.42;;;;;;;;;;5022822;28;20503;-66
2023/03/06 00:36:10;;;;;;;3.33;1.40;;;;;;;;;;5025084;28;20687;-66
2023/03/06 00:38:36;;;;;;;4.53;1.67;;;;;;;;;;5027468;28;20124;-64
2023/03/06 00:41:12;;;;;;;1.95;1.17;;;;;;;;;;5026591;28;20503;-65
2023/03/06 00:43:38;;;;;;;3.38;1.38;;;;;;;;;;5024011;28;20065;-65
2023/03/06 00:46:05;;;;;;;5.32;1.95;;;;;;;;;;5026026;28;20087;-65
2023/03/06 00:48:31;;;;;;;2.65;1.40;;;;;;;;;;5027374;28;20056;-65
2023/03/06 00:50:57;;;;;;;4.45;1.48;;;;;;;;;;5025638;28;20037;-65
2023/03/06 00:53:24;;;;;;;6.82;1.60;;;;;;;;;;5026781;28;20136;-65
2023/03/06 00:55:50;;;;;;;2.50;1.05;;;;;;;;;;5025808;28;20534;-65
2023/03/06 00:58:16;;;;;;;2.35;1.52;;;;;;;;;;5026099;28;20399;-65
2023/03/06 01:00:42;;;;;;;4.00;1.27;;;;;;;;;;5022328;28;20432;-65
2023/03/06 01:03:09;;;;;;;1.95;1.00;;;;;;;;;;5026641;28;20029;-65
2023/03/06 01:05:36;;;;;;;4.00;1.63;;;;;;;;;;5025761;28;20038;-64
2023/03/06 01:08:02;;;;;;;3.35;1.73;;;;;;;;;;5020928;28;20042;-65
2023/03/06 01:10:28;;;;;;;4.13;1.70;;;;;;;;;;5022667;28;20042;-65
2023/03/06 01:12:54;;;;;;;5.65;1.90;;;;;;;;;;5027974;28;20482;-65
2023/03/06 01:15:21;;;;;;;2.97;1.90;;;;;;;;;;5027069;28;20040;-65
2023/03/06 01:17:47;;;;;;;2.97;1.25;;;;;;;;;;5027081;28;20479;-65
2023/03/06 01:20:15;;;;;;;3.75;1.33;;;;;;;;;;5027159;28;20037;-65
2023/03/06 01:22:41;;;;;;;2.90;1.55;;;;;;;;;;5030571;28;20037;-65
2023/03/06 01:25:07;;;;;;;3.17;1.65;;;;;;;;;;5027919;28;20037;-65
2023/03/06 01:27:34;;;;;;;3.33;1.40;;;;;;;;;;5028090;28;20057;-65
2023/03/06 01:30:01;;;;;;;4.20;1.80;;;;;;;;;;5027660;28;20116;-64
2023/03/06 01:32:27;;;;;;;2.83;1.52;;;;;;;;;;5043962;28;20052;-65
2023/03/06 01:34:53;;;;;;;5.45;1.48;;;;;;;;;;5029278;28;20037;-65
2023/03/06 01:37:19;;;;;;;2.72;1.60;;;;;;;;;;5029592;28;20042;-65
2023/03/06 01:39:45;;;;;;;5.55;1.50;;;;;;;;;;5030187;28;20041;-65
2023/03/06 01:42:11;;;;;;;3.75;1.60;;;;;;;;;;5024763;28;20069;-65
2023/03/06 01:44:57;;;;;;;1.77;1.10;;;;;;;;;;5019255;28;20080;-64
2023/03/06 01:47:23;;;;;;;4.65;1.05;;;;;;;;;;5028838;28;20494;-64
2023/03/06 01:49:49;;;;;;;4.80;0.90;;;;;;;;;;5030143;28;20041;-65
2023/03/06 01:52:17;;;;;;;1.85;0.50;;;;;;;;;;5028915;28;20567;-64
2023/03/06 01:54:48;;;;;;;1.13;0.70;;;;;;;;;;5029196;28;20449;-65
2023/03/06 01:57:17;;;;;;;3.35;0.75;;;;;;;;;;5029268;28;20407;-65
2023/03/06 01:59:43;;;;;;;3.22;1.13;;;;;;;;;;5020924;28;20346;-65
2023/03/06 02:02:10;;;;;;;1.08;0.52;;;;;;;;;;5028958;28;20032;-65
2023/03/06 02:04:38;;;;;;;0.52;0.50;;;;;;;;;;5029091;28;20120;-64
2023/03/06 02:07:05;;;;;;;0.65;0.60;;;;;;;;;;5029251;28;20213;-65
2023/03/06 02:09:33;;;;;;;1.63;0.73;;;;;;;;;;5033068;28;20041;-65
2023/03/06 02:12:05;;;;;;;0.80;0.70;;;;;;;;;;5023506;28;20049;-64
2023/03/06 02:14:31;;;;;;;0.40;0.40;;;;;;;;;;5027699;28;20044;-65
2023/03/06 02:16:58;;;;;;;0.30;0.30;;;;;;;;;;5008768;28;20397;-65
2023/03/06 02:19:39;;;;;;;0.30;0.30;;;;;;;;;;5028652;28;20037;-65
2023/03/06 02:22:06;;;;;;;0.63;0.30;;;;;;;;;;5028558;28;20033;-65
2023/03/06 02:24:37;;;;;;;0.20;0.20;;;;;;;;;;5028340;28;20410;-65
2023/03/06 02:27:03;;;;;;;1.48;0.32;;;;;;;;;;5028894;28;20060;-64
2023/03/06 02:29:30;;;;;;;0.32;0.20;;;;;;;;;;5028141;28;20098;-65
2023/03/06 02:31:56;;;;;;;0.30;0.30;;;;;;;;;;5027346;28;20048;-65
2023/03/06 02:34:22;;;;;;;0.40;0.30;;;;;;;;;;5026131;28;20056;-65
2023/03/06 02:36:50;;;;;;;0.55;0.50;;;;;;;;;;5028959;28;20495;-65
2023/03/06 02:39:18;;;;;;;0.45;0.40;;;;;;;;;;5027283;28;20045;-65
2023/03/06 02:41:44;;;;;;;0.52;0.50;;;;;;;;;;5028096;28;20486;-65
2023/03/06 02:44:10;;;;;;;0.98;0.32;;;;;;;;;;5028439;28;20030;-64
2023/03/06 02:46:36;;;;;;;0.77;0.45;;;;;;;;;;5023521;28;20033;-65
2023/03/06 02:49:02;;;;;;;0.50;0.50;;;;;;;;;;5043920;28;20055;-65
2023/03/06 02:51:28;;;;;;;0.52;0.52;;;;;;;;;;5028186;28;20051;-64
2023/03/06 02:53:54;;;;;;;0.70;0.57;;;;;;;;;;5028301;28;20124;-65
2023/03/06 02:56:21;;;;;;;0.77;0.50;;;;;;;;;;5027839;28;20407;-65
2023/03/06 02:58:47;;;;;;;0.47;0.45;;;;;;;;;;5027495;28;20384;-65
2023/03/06 03:01:13;;;;;;;0.93;0.70;;;;;;;;;;5037085;28;20029;-65
2023/03/06 03:03:39;;;;;;;0.82;0.50;;;;;;;;;;5020883;28;20087;-65
2023/03/06 03:06:06;;;;;;;0.75;0.45;;;;;;;;;;5022469;28;20076;-64
2023/03/06 03:08:32;;;;;;;0.80;0.60;;;;;;;;;;5027788;28;20042;-65
2023/03/06 03:10:59;;;;;;;0.93;0.50;;;;;;;;;;5026579;28;20561;-65
2023/03/06 03:13:25;;;;;;;1.95;0.93;;;;;;;;;;5027663;28;20495;-65
2023/03/06 03:16:12;;;;;;;1.10;0.50;;;;;;;;;;5026862;28;20103;-64
2023/03/06 03:18:39;;;;;;;4.22;0.88;;;;;;;;;;5023436;28;20064;-65
2023/03/06 03:21:11;;;;;;;0.68;0.57;;;;;;;;;;5026933;28;20037;-65
2023/03/06 03:23:37;;;;;;;1.52;0.52;;;;;;;;;;5027560;28;20049;-65
2023/03/06 03:26:07;;;;;;;1.75;0.50;;;;;;;;;;5027449;28;20045;-65
2023/03/06 03:28:34;;;;;;;2.25;0.75;;;;;;;;;;5028115;28;20053;-65
2023/03/06 03:31:04;;;;;;;1.50;0.60;;;;;;;;;;5041899;28;20033;-65
2023/03/06 03:33:30;;;;;;;1.05;0.57;;;;;;;;;;5025381;28;20053;-65
2023/03/06 03:36:00;;;;;;;2.63;0.80;;;;;;;;;;5023535;28;20087;-65
2023/03/06 03:38:26;;;;;;;3.03;0.98;;;;;;;;;;5026917;28;20034;-65
2023/03/06 03:40:52;;;;;;;2.85;0.95;;;;;;;;;;5026293;28;20037;-65
2023/03/06 03:43:18;;;;;;;1.15;0.68;;;;;;;;;;5022820;28;20091;-67
2023/03/06 03:45:45;;;;;;;2.92;1.00;;;;;;;;;;5027793;28;20055;-65
2023/03/06 03:48:11;;;;;;;1.90;0.70;;;;;;;;;;5023501;28;20037;-65
2023/03/06 03:50:37;;;;;;;1.90;0.80;;;;;;;;;;5024596;28;20037;-64
2023/03/06 03:53:03;;;;;;;2.03;0.90;;;;;;;;;;5024076;28;20434;-65
2023/03/06 03:55:29;;;;;;;1.10;0.70;;;;;;;;;;5025361;28;20116;-65
2023/03/06 03:57:56;;;;;;;1.35;0.73;;;;;;;;;;5039543;28;20144;-65
2023/03/06 04:00:22;;;;;;;1.30;0.77;;;;;;;;;;5027531;28;20126;-65
2023/03/06 04:02:48;;;;;;;2.47;0.98;;;;;;;;;;5042454;28;20399;-64
2023/03/06 04:05:15;;;;;;;1.45;1.00;;;;;;;;;;5026575;28;20099;-65
2023/03/06 04:07:41;;;;;;;1.58;1.02;;;;;;;;;;5027336;28;20454;-64
2023/03/06 04:10:08;;;;;;;1.20;0.77;;;;;;;;;;5027216;28;20042;-65
2023/03/06 04:12:35;;;;;;;1.92;0.80;;;;;;;;;;5026427;28;20554;-65
2023/03/06 04:15:01;;;;;;;2.22;1.02;;;;;;;;;;5022549;28;20569;-65
2023/03/06 04:17:27;;;;;;;1.73;0.90;;;;;;;;;;5027964;28;20056;-65
2023/03/06 04:19:54;;;;;;;1.52;1.08;;;;;;;;;;5026916;28;20033;-64
2023/03/06 04:22:20;;;;;;;1.58;1.02;;;;;;;;;;5026781;28;20030;-64
2023/03/06 04:24:48;;;;;;;2.58;1.20;;;;;;;;;;5026667;28;20427;-65
2023/03/06 04:27:15;;;;;;;2.20;1.23;;;;;;;;;;5026828;28;20577;-65
2023/03/06 04:29:41;;;;;;;4.00;1.30;;;;;;;;;;5025602;28;20076;-65
2023/03/06 04:32:07;;;;;;;1.35;0.90;;;;;;;;;;5027881;28;20037;-65
2023/03/06 04:34:33;;;;;;;2.33;0.90;;;;;;;;;;5024935;28;20124;-65
2023/03/06 04:36:59;;;;;;;1.70;1.20;;;;;;;;;;5042056;28;20128;-65
2023/03/06 04:39:26;;;;;;;1.45;1.00;;;;;;;;;;5024690;28;20029;-65
2023/03/06 04:41:52;;;;;;;2.80;1.27;;;;;;;;;;5019854;28;20075;-65
2023/03/06 04:44:18;;;;;;;3.13;1.10;;;;;;;;;;5025207;28;20395;-64
2023/03/06 04:46:44;;;;;;;2.22;1.25;;;;;;;;;;5019861;28;20047;-65
2023/03/06 04:49:10;;;;;;;2.40;1.40;;;;;;;;;;5023304;28;20052;-65
2023/03/06 04:51:36;;;;;;;1.50;0.98;;;;;;;;;;5025803;28;20041;-65
2023/03/06 04:54:03;;;;;;;1.83;1.02;;;;;;;;;;5027075;28;20499;-65
2023/03/06 04:56:29;;;;;;;3.00;1.23;;;;;;;;;;5029551;28;20087;-64
2023/03/06 04:58:56;;;;;;;2.45;1.42;;;;;;;;;;5030092;28;20053;-65
2023/03/06 05:01:22;;;;;;;2.60;0.85;;;;;;;;;;5030564;28;20494;-65
2023/03/06 05:03:48;;;;;;;1.77;1.15;;;;;;;;;;5030203;28;20037;-65
2023/03/06 05:06:15;;;;;;;1.23;1.00;;;;;;;;;;5023751;28;20076;-65
2023/03/06 05:08:41;;;;;;;1.77;1.25;;;;;;;;;;5029935;28;20048;-64
2023/03/06 05:11:07;;;;;;;1.90;1.02;;;;;;;;;;5030201;28;20068;-65
2023/03/06 05:13:34;;;;;;;0.98;0.80;;;;;;;;;;5042984;28;20040;-65
2023/03/06 05:16:03;;;;;;;3.50;1.17;;;;;;;;;;5030241;28;20041;-64
2023/03/06 05:18:30;;;;;;;2.13;1.27;;;;;;;;;;5030527;28;20186;-65
2023/03/06 05:20:58;;;;;;;2.92;1.50;;;;;;;;;;5029823;28;20033;-65
2023/03/06 05:23:28;;;;;;;1.65;1.08;;;;;;;;;;5028853;28;20056;-64
2023/03/06 05:25:54;;;;;;;2.00;0.95;;;;;;;;;;5025798;28;20037;-64
2023/03/06 05:28:20;;;;;;;4.85;1.20;;;;;;;;;;5029471;28;20760;-65
2023/03/06 05:30:47;;;;;;;2.40;1.20;;;;;;;;;;5030370;28;20150;-65
2023/03/06 05:33:13;;;;;;;3.92;1.35;;;;;;;;;;5029514;28;20025;-64
2023/03/06 05:35:39;;;;;;;2.85;1.48;;;;;;;;;;5030245;28;20598;-65
2023/03/06 05:38:05;;;;;;;2.60;1.65;;;;;;;;;;5029948;28;20149;-65
2023/03/06 05:40:31;;;;;;;2.08;1.30;;;;;;;;;;5022412;28;20499;-65
2023/03/06 05:42:57;;;;;;;1.83;1.33;;;;;;;;;;5028952;28;20419;-65
2023/03/06 05:45:23;;;;;;;2.33;1.38;;;;;;;;;;5042964;28;20387;-65
2023/03/06 05:47:50;;;;;;;2.63;1.30;;;;;;;;;;5024256;28;21654;-65
2023/03/06 05:50:16;;;;;;;2.75;1.38;;;;;;;;;;5022593;28;20408;-65
2023/03/06 05:52:42;;;;;;;2.47;1.33;;;;;;;;;;5022680;28;20051;-65
2023/03/06 05:55:10;;;;;;;4.15;1.70;;;;;;;;;;5026155;28;20037;-65
2023/03/06 05:57:36;;;;;;;3.55;1.40;;;;;;;;;;5028248;28;20053;-65
2023/03/06 06:00:03;;;;;;;4.93;1.40;;;;;;;;;;5023950;28;20079;-65
2023/03/06 06:02:29;;;;;;;2.10;1.33;;;;;;;;;;5023385;28;20045;-65
2023/03/06 06:04:55;;;;;;;2.70;1.27;;;;;;;;;;5019792;28;20041;-65
2023/03/06 06:07:21;;;;;;;2.72;1.75;;;;;;;;;;5018768;28;20052;-65
2023/03/06 06:09:47;;;;;;;2.38;1.48;;;;;;;;;;5018481;28;20052;-65
2023/03/06 06:12:14;;;;;;;2.47;1.30;;;;;;;;;;5020241;28;20593;-65
2023/03/06 06:14:40;;;;;;;2.47;1.40;;;;;;;;;;5016947;28;20044;-65
2023/03/06 06:17:06;;;;;;;3.65;1.75;;;;;;;;;;5013689;28;20052;-65
2023/03/06 06:19:32;;;;;;;3.58;1.27;;;;;;;;;;5016244;28;20048;-66
2023/03/06 06:22:01;;;;;;;2.88;1.40;;;;;;;;;;5014604;28;20092;-65
2023/03/06 06:24:27;;;;;;;2.97;1.52;;;;;;;;;;5018599;28;20041;-65
2023/03/06 06:26:54;;;;;;;2.63;1.38;;;;;;;;;;5026024;28;20033;-65
2023/03/06 06:29:21;;;;;;;3.08;2.00;;;;;;;;;;5024768;28;20034;-65
2023/03/06 06:31:47;;;;;;;2.35;1.23;;;;;;;;;;5028558;28;20053;-65
2023/03/06 06:34:14;;;;;;;3.38;1.65;;;;;;;;;;5029406;28;20048;-65
2023/03/06 06:36:40;;;;;;;3.90;1.40;;;;;;;;;;5019082;28;20037;-65
2023/03/06 06:39:07;;;;;;;2.72;1.90;;;;;;;;;;5026047;28;20052;-65
2023/03/06 06:41:34;;;;;;;2.72;1.35;;;;;;;;;;5037855;28;20045;-65
2023/03/06 06:44:00;;;;;;;4.28;2.05;;;;;;;;;;5020368;28;20375;-65
2023/03/06 06:46:27;;;;;;;3.70;1.52;;;;;;;;;;5006894;28;20076;-65
2023/03/06 06:48:53;;;;;;;3.28;2.25;;;;;;;;;;5024305;28;20122;-64
2023/03/06 06:51:20;;;;;;;2.42;1.60;;;;;;;;;;5012344;28;20040;-64
2023/03/06 06:53:47;;;;;;;2.72;1.83;;;;;;;;;;5016785;28;20132;-65
2023/03/06 06:56:13;;;;;;;3.13;1.80;;;;;;;;;;5022607;28;20049;-65
2023/03/06 06:58:39;;;;;;;5.10;2.17;;;;;;;;;;5024204;28;20057;-65
2023/03/06 07:01:10;;;;;;;5.13;1.67;;;;;;;;;;5037006;28;20081;-65
2023/03/06 07:03:36;;;;;;;3.60;1.90;;;;;;;;;;5019789;28;20065;-66
2023/03/06 07:06:03;;;;;;;4.13;1.70;;;;;;;;;;5026427;28;20415;-65
2023/03/06 07:08:29;;;;;;;3.80;2.30;;;;;;;;;;5025462;28;20560;-65
2023/03/06 07:10:55;;;;;;;4.10;2.10;;;;;;;;;;5025240;28;20076;-65
2023/03/06 07:13:22;;;;;;;2.35;1.55;;;;;;;;;;5026598;28;20125;-65
2023/03/06 07:15:48;;;;;;;4.32;1.92;;;;;;;;;;5025317;28;20087;-65
2023/03/06 07:18:14;;;;;;;3.45;1.75;;;;;;;;;;5017737;28;20030;-65
2023/03/06 07:20:40;;;;;;;4.85;2.28;;;;;;;;;;5024400;28;20116;-65
2023/03/06 07:23:07;;;;;;;3.67;1.88;;;;;;;;;;5028205;28;20573;-65
2023/03/06 07:25:33;;;;;;;4.57;2.17;;;;;;;;;;5026280;28;20037;-65
2023/03/06 07:28:00;;;;;;;4.55;2.20;;;;;;;;;;5027143;28;20041;-65
2023/03/06 07:30:26;;;;;;;2.00;1.55;;;;;;;;;;5027861;28;20040;-65
2023/03/06 07:32:53;;;;;;;5.68;1.90;;;;;;;;;;5024420;28;20038;-65
2023/03/06 07:35:19;;;;;;;2.75;1.75;;;;;;;;;;5026801;28;20095;-66
2023/03/06 07:37:45;;;;;;;4.63;1.83;;;;;;;;;;5025251;28;20114;-65
2023/03/06 07:40:12;;;;;;;3.25;1.50;;;;;;;;;;5021697;28;20041;-66
2023/03/06 07:42:38;;;;;;;4.13;1.70;;;;;;;;;;5042578;28;20046;-65
2023/03/06 07:45:05;;;;;;;3.35;1.70;;;;;;;;;;5025550;28;20414;-65
2023/03/06 07:47:31;;;;;;;3.22;1.40;;;;;;;;;;5027870;28;20041;-64
2023/03/06 07:50:01;;;;;;;4.13;1.55;;;;;;;;;;5026458;28;20128;-65
2023/03/06 07:52:28;;;;;;;3.10;1.60;;;;;;;;;;5027940;28;20531;-65
2023/03/06 07:54:54;;;;;;;3.08;1.40;;;;;;;;;;5026365;28;20037;-65
2023/03/06 07:57:20;;;;;;;4.53;1.67;;;;;;;;;;5028048;28;20517;-65
2023/03/06 07:59:46;;;;;;;2.88;1.73;;;;;;;;;;5022221;28;20042;-65
2023/03/06 08:02:12;;;;;;;3.00;1.48;;;;;;;;;;5026186;28;20179;-65
2023/03/06 08:04:38;;;;;;;3.65;1.50;;;;;;;;;;5023632;28;20456;-65
2023/03/06 08:07:05;;;;;;;3.45;1.70;;;;;;;;;;5027413;28;20455;-65
2023/03/06 08:09:31;;;;;;;6.32;1.85;;;;;;;;;;5041986;28;20113;-65
2023/03/06 08:11:57;;;;;;;2.22;1.42;;;;;;;;;;5027409;28;20084;-66
2023/03/06 08:14:23;;;;;;;2.78;1.77;;;;;;;;;;5026597;28;20525;-66
2023/03/06 08:16:50;;;;;;;2.22;1.45;;;;;;;;;;5026407;28;20077;-65
2023/03/06 08:19:16;;;;;;;1.60;1.20;;;;;;;;;;5026870;28;20040;-65
2023/03/06 08:21:43;;;;;;;2.13;1.10;;;;;;;;;;5023868;28;20040;-65
2023/03/06 08:24:09;;;;;;;1.65;1.40;;;;;;;;;;5028009;28;20444;-65
2023/03/06 08:26:35;;;;;;;2.38;1.42;;;;;;;;;;5036921;28;20132;-65
2023/03/06 08:29:01;;;;;;;5.13;1.65;;;;;;;;;;5020989;28;20124;-65
2023/03/06 08:31:38;;;;;;;3.80;1.98;;;;;;;;;;5044724;28;20144;-65
2023/03/06 08:34:09;;;;;;;3.80;1.63;;;;;;;;;;5029743;28;20120;-65
2023/03/06 08:36:35;;;;;;;6.35;1.60;;;;;;;;;;5030485;28;20044;-65
2023/03/06 08:39:01;;;;;;;3.30;1.35;;;;;;;;;;5030740;28;20068;-66
2023/03/06 08:41:28;;;;;;;2.08;0.90;;;;;;;;;;5028038;28;20053;-66
2023/03/06 08:43:54;;;;;;;3.22;1.55;;;;;;;;;;5025832;28;20077;-65
2023/03/06 08:46:22;;;;;;;3.33;0.88;;;;;;;;;;5026742;28;20372;-65
2023/03/06 08:48:48;;;;;;;3.17;1.20;;;;;;;;;;5031245;28;20080;-66
2023/03/06 08:51:15;;;;;;;4.38;0.98;;;;;;;;;;5028812;28;20772;-65
2023/03/06 08:53:41;;;;;;;2.33;0.70;;;;;;;;;;5028567;28;20041;-66
2023/03/06 08:56:08;;;;;;;4.57;1.15;;;;;;;;;;5021097;28;20099;-65
2023/03/06 08:58:34;;;;;;;1.52;0.90;;;;;;;;;;5045442;28;20049;-66
2023/03/06 09:01:02;;;;;;;2.42;0.70;;;;;;;;;;5024249;28;20517;-65
2023/03/06 09:03:28;;;;;;;4.57;1.10;;;;;;;;;;5031311;28;20099;-65
2023/03/06 09:05:54;;;;;;;4.40;1.30;;;;;;;;;;5029544;28;20038;-65
2023/03/06 09:08:20;;;;;;;5.32;1.15;;;;;;;;;;5029883;28;20038;-66
2023/03/06 09:10:47;;;;;;;2.70;1.20;;;;;;;;;;5025643;28;20100;-66
2023/03/06 09:13:14;;;;;;;3.65;1.40;;;;;;;;;;5028717;28;20049;-66
2023/03/06 09:15:40;;;;;;;4.05;1.38;;;;;;;;;;5027557;28;20045;-66
2023/03/06 09:18:06;;;;;;;3.50;1.20;;;;;;;;;;5019216;28;20510;-65
2023/03/06 09:20:32;;;;;;;4.35;1.35;;;;;;;;;;5020981;28;20045;-66
2023/03/06 09:22:58;;;;;;;2.70;1.05;;;;;;;;;;5024321;28;20038;-66
2023/03/06 09:25:24;;;;;;;3.95;1.30;;;;;;;;;;5018590;28;20034;-65
2023/03/06 09:27:51;;;;;;;3.35;1.33;;;;;;;;;;5019618;28;20510;-66
2023/03/06 09:30:17;;;;;;;2.90;1.05;;;;;;;;;;5022933;28;20425;-66
2023/03/06 09:32:44;;;;;;;5.07;1.67;;;;;;;;;;5027235;28;20046;-65
2023/03/06 09:35:10;;;;;;;1.98;1.00;;;;;;;;;;5026270;28;20411;-66
2023/03/06 09:37:36;;;;;;;4.35;1.33;;;;;;;;;;5024988;28;20532;-66
2023/03/06 09:40:05;;;;;;;4.32;1.38;;;;;;;;;;5033864;28;20496;-66
2023/03/06 09:42:32;;;;;;;1.58;1.13;;;;;;;;;;5028588;28;20046;-66
2023/03/06 09:44:59;;;;;;;4.35;1.38;;;;;;;;;;5028715;28;20045;-68
2023/03/06 09:47:40;;;;;;;5.53;1.30;;;;;;;;;;5022048;28;20038;-68
2023/03/06 09:50:21;;;;;;;1.95;1.00;;;;;;;;;;5021677;28;20180;-67
2023/03/06 09:52:47;;;;;;;4.55;0.93;;;;;;;;;;5030041;28;20410;-67
2023/03/06 09:55:26;;;;;;;3.45;1.20;;;;;;;;;;5027834;28;20033;-67
2023/03/06 09:57:52;;;;;;;3.05;0.85;;;;;;;;;;5043615;28;20503;-67
2023/03/06 10:00:37;;;;;;;2.47;0.88;;;4.30;99.90;;;;;;5025824;28;20034;-67
2023/03/06 10:03:23;;;;;;;4.88;1.30;;;;;;;;;;5024669;28;20063;-67
2023/03/06 10:05:58;;;;;;;3.92;1.48;;;;;;;;;;5024686;28;20124;-67
2023/03/06 10:08:25;;;;;;;2.90;1.00;;;;;;;;;;5023823;28;20033;-67
2023/03/06 10:10:59;;;;;;;3.03;0.90;;;;;;;;;;5026848;28;20040;-68
2023/03/06 10:13:25;;;;;;;3.50;0.77;;;;;;;;;;5027945;28;20515;-67
2023/03/06 10:16:03;;;;;;;0.60;0.55;;;;;;;;;;5027220;28;20102;-68
2023/03/06 10:18:29;;;;;;;3.78;0.90;;;;;;;;;;5028282;28;20403;-67
2023/03/06 10:21:01;;;;;;;3.40;1.27;;;;;;;;;;5029735;28;20034;-68
2023/03/06 10:23:27;;;;;;;3.00;1.00;;;;;;;;;;5027168;28;20053;-67
2023/03/06 10:26:01;;;;;;;5.63;0.90;;;;;;;;;;5029689;28;20095;-67
2023/03/06 10:28:30;;;;;;;6.63;0.93;;;;;;;;;;5026917;28;20133;-67
2023/03/06 10:30:56;;;;;;;2.53;0.70;;;;;;;;;;5027751;28;20570;-67
2023/03/06 10:33:25;;;;;;;4.10;0.70;;;;;;;;;;5024152;28;20068;-67
2023/03/06 10:35:53;;;;;;;1.58;0.90;;;;;;;;;;5026352;28;20135;-68
2023/03/06 10:38:19;;;;;;;1.50;0.80;;;;;;;;;;5027321;28;20033;-68
2023/03/06 10:41:04;;;;;;;2.00;0.63;;;;;;;;;;5028185;28;20030;-68
2023/03/06 10:43:30;;;;;;;1.80;0.60;;;;;;;;;;5027017;28;20511;-68
2023/03/06 10:45:56;;;;;;;2.40;0.82;;;;;;;;;;5027804;28;20522;-68
2023/03/06 10:48:24;;;;;;;2.67;0.50;;;;;;;;;;5027427;28;20128;-67
2023/03/06 10:50:50;;;;;;;1.58;0.82;;;;;;;;;;5026728;28;20091;-67
2023/03/06 10:53:31;;;;;;;1.55;0.50;;;;;;;;;;5024944;28;20113;-68
2023/03/06 10:56:01;;;;;;;3.28;0.65;;;;;;;;;;5020761;28;20037;-67
2023/03/06 10:58:28;;;;;;;3.42;1.08;;;5.00;99.90;;;;;;5023682;28;20053;-67
2023/03/06 11:01:01;;;;;;;1.73;0.93;;;5.90;99.90;;;;;;5025785;28;20034;-68
2023/03/06 11:03:28;;;;;;;1.70;0.88;;;5.90;99.90;;;;;;5019260;28;20492;-67
2023/03/06 11:06:01;;;;;;;1.45;0.63;;;5.90;99.90;;;;;;5026157;28;20411;-67
2023/03/06 11:08:28;;;;;;;2.95;1.42;;;5.80;99.90;;;;;;5027230;28;20045;-67
2023/03/06 11:11:00;;;;;;;2.53;0.98;;;5.80;99.90;;;;;;5025548;28;20033;-67
2023/03/06 11:13:28;;;;;;;1.95;0.98;;;5.90;99.90;;;;;;5030751;28;20041;-67
2023/03/06 11:16:01;;;;;;;2.03;1.15;;;5.90;99.90;;;;;;5032006;28;20037;-67
2023/03/06 11:18:33;;;;;;;4.47;0.80;;;6.00;99.90;;;;;;5026212;28;20041;-67
2023/03/06 11:21:01;;;;;;;1.95;1.05;;;6.00;99.90;;;;;;5026124;28;20034;-68
2023/03/06 11:23:46;;;;;;;1.25;0.70;;;6.00;99.90;;;;;;5025310;28;20458;-67
2023/03/06 11:26:14;;;;;;;1.65;1.13;;;6.00;99.90;;;;;;5021929;28;20076;-67
2023/03/06 11:28:55;;;;;;;5.95;1.63;;;5.90;99.90;;;;;;5028460;28;20041;-66
2023/03/06 11:31:26;;;;;;;1.10;0.73;;;5.90;99.90;;;;;;5024769;28;20103;-67
2023/03/06 11:34:31;;;;;;;1.55;0.80;;;5.90;99.90;;;;;;5018592;28;20038;-67
2023/03/06 11:37:23;;;;;;;2.80;0.70;;;5.90;99.90;;;;;;5002514;28;20077;-67
2023/03/06 11:40:14;;;;;;;5.15;0.70;;;5.90;99.90;;;;;;5021476;28;20322;-67
2023/03/06 11:42:54;;;;;;;2.28;0.60;;;5.90;99.90;;;;;;5024119;28;20044;-67
2023/03/06 11:45:31;;;;;;;1.38;0.70;;;5.90;99.90;;;;;;5001850;28;20038;-67
2023/03/06 11:48:12;;;;;;;1.92;0.55;;;5.90;99.90;;;;;;5024835;28;20041;-67
2023/03/06 11:50:52;;;;;;;2.50;0.80;;;5.90;99.90;;;;;;5021827;28;20048;-67
2023/03/06 11:53:28;;;;;;;0.80;0.60;;;5.90;99.90;;;;;;5024693;28;20420;-67
2023/03/06 11:56:00;;;;;;;1.48;0.65;;;5.80;99.90;;;;;;5027871;28;20052;-67
2023/03/06 11:58:50;;;;;;;0.85;0.60;;;5.80;99.90;;;;;;5023045;28;20042;-67
2023/03/06 12:01:19;;;;;;;2.33;0.60;;;5.80;99.90;;;;;;5024304;28;20045;-67
2023/03/06 12:04:06;;;;;;;3.67;0.65;;;5.80;99.90;;;;;;5025893;28;20045;-67
2023/03/06 12:07:09;;;;;;;3.65;0.85;;;5.80;99.90;;;;;;5023737;28;20127;-67
2023/03/06 12:09:45;;;;;;;1.10;0.65;;;5.90;99.90;;;;;;5017702;28;20045;-67
2023/03/06 12:12:36;;;;;;;2.70;0.68;;;5.90;99.90;;;;;;5024909;28;20037;-67
2023/03/06 12:15:16;;;;;;;1.13;0.85;;;5.90;99.90;;;;;;5020578;28;20369;-67
2023/03/06 12:18:06;;;;;;;1.27;0.73;;;5.90;99.90;;;;;;5027481;28;20128;-67
2023/03/06 12:20:49;;;;;;;0.47;0.47;;;5.90;99.90;;;;;;5023295;28;20172;-67
2023/03/06 12:23:15;;;;;;;2.00;0.77;;;5.90;99.90;;;;;;5022427;28;20170;-67
2023/03/06 12:25:46;;;;;;;11.50;3.60;;;6.00;99.90;;;;;;5022541;28;20140;-67
2023/03/06 12:28:18;;;;;;;3.13;1.00;;;6.00;99.90;;;;;;5024367;28;20049;-67
2023/03/06 12:31:11;;;;;;;1.45;0.88;;;6.10;99.90;;;;;;5024762;28;20529;-67
2023/03/06 14:16:52;;;;;;;2.65;1.42;;;;;;;;;;5025032;28;20471;-66
2023/03/06 14:26:43;;;;;;;2.75;1.33;;;;;;;;;;4996320;28;20401;-67
2023/03/06 14:29:26;;;;;;;0.73;0.73;;;;;;;;;;5015529;28;20034;-67
2023/03/06 14:31:54;;;;;;;4.13;1.75;;;;;;;;;;4996477;28;20053;-67
2023/03/06 14:34:25;;;;;;;5.75;1.50;;;;;;;;;;4999786;28;20056;-67
2023/03/06 14:36:55;;;;;;;3.03;1.55;;;;;;;;;;5010114;28;20225;-67
2023/03/06 14:39:22;;;;;;;1.55;1.25;;;;;;;;;;4990544;28;20096;-67
2023/03/06 14:41:48;;;;;;;2.35;1.70;;;;;;;;;;5024064;28;20099;-67
2023/03/06 14:44:18;;;;;;;7.65;3.05;;;;;;;;;;5016267;28;20453;-67
2023/03/06 14:46:46;;;;;;;5.20;2.00;;;;;;;;;;4997058;28;20754;-67
2023/03/06 14:49:14;;;;;;;2.05;1.38;;;;;;;;;;5022903;28;20640;-67
2023/03/06 14:51:47;;;;;;;4.53;1.92;;;;;;;;;;5047523;28;20044;-67
2023/03/06 14:54:18;;;;;;;4.80;2.15;;;;;;;;;;5043559;28;20128;-67
2023/03/06 14:56:46;;;;;;;3.75;1.65;;;;;;;;;;5045163;28;20048;-66
2023/03/06 14:59:15;;;;;;;5.78;1.85;;;;;;;;;;5042430;28;20455;-67
2023/03/06 15:01:46;;;;;;;2.70;1.50;;;;;;;;;;5048336;28;20036;-67
2023/03/06 15:04:28;;;;;;;3.05;1.92;;;;;;;;;;5046005;28;20403;-67
2023/03/06 15:06:55;;;;;;;4.35;2.13;;;;;;;;;;5042186;28;22113;-67
2023/03/06 15:09:23;;;;;;;2.92;1.73;;;;;;;;;;5019885;28;20032;-67
2023/03/06 15:11:52;;;;;;;8.02;2.95;;;;;;;;;;5045043;28;20121;-66
2023/03/06 15:14:19;;;;;;;3.85;2.42;;;;;;;;;;5045629;28;20036;-67
2023/03/06 15:16:48;;;;;;;3.58;2.45;;;;;;;;;;5040228;28;20053;-64
2023/03/06 15:19:19;;;;;;;4.20;2.83;;;;;;;;;;5025052;28;20048;-65
2023/03/06 15:21:50;;;;;;;6.35;2.75;;;;;;;;;;5051232;28;20036;-65
2023/03/06 15:24:28;;;;;;;5.18;3.30;;;;;;;;;;5048804;28;20102;-65
2023/03/06 15:26:55;;;;;;;6.68;3.72;;;;;;;;;;5041426;28;20052;-65
2023/03/06 15:29:22;;;;;;;14.98;4.38;;;;;;;;;;5045573;28;20451;-65
2023/03/06 15:31:48;;;;;;;7.72;4.53;;;;;;;;;;5045151;28;20048;-65
2023/03/06 15:34:17;;;;;;;4.70;3.38;;;;;;;;;;5044554;28;20044;-65
2023/03/06 15:37:09;;;;;;;6.03;3.55;;;;;;;;;;5031741;28;20099;-64
2023/03/06 15:39:36;;;;;;;4.15;2.92;;;;;;;;;;5001280;28;20116;-65
2023/03/06 15:42:07;;;;;;;6.65;4.32;;;;;;;;;;5049741;28;20037;-64
2023/03/06 15:44:33;;;;;;;4.70;3.63;;;;;;;;;;5041070;28;20037;-65
2023/03/06 15:46:59;;;;;;;6.72;4.22;;;;;;;;;;5044251;28;20049;-64
2023/03/06 15:49:25;;;;;;;6.90;4.28;;;;;;;;;;5047267;28;20238;-64
2023/03/06 15:51:51;;;;;;;6.78;3.95;;;;;;;;;;5041645;28;20467;-65
2023/03/06 15:54:17;;;;;;;10.85;4.13;;;;;;;;;;5047458;28;20041;-64
2023/03/06 15:56:45;;;;;;;5.53;3.55;;;;;;;;;;5048208;28;20041;-64
2023/03/06 15:59:23;;;;;;;4.38;3.13;;;;;;;;;;5043184;28;20056;-63
2023/03/06 16:01:50;;;;;;;5.80;3.50;;;;;;;;;;5042752;28;20052;-64
2023/03/06 16:04:17;;;;;;;5.50;3.42;;;;;;;;;;5044838;28;20462;-65
2023/03/06 16:06:46;;;;;;;5.93;3.40;;;;;;;;;;5029244;28;20056;-64
2023/03/06 16:09:13;;;;;;;4.95;3.42;;;;;;;;;;5053611;28;20426;-65
2023/03/06 16:11:43;;;;;;;5.63;3.53;;;;;;;;;;5047522;28;20048;-65
2023/03/06 16:14:20;;;;;;;7.47;4.50;;;;;;;;;;5041034;28;20075;-64
2023/03/06 16:16:48;;;;;;;5.28;3.88;;;;;;;;;;5045922;28;20060;-66
2023/03/06 16:19:16;;;;;;;5.53;3.90;;;;;;;;;;5047677;28;20133;-65
2023/03/06 16:21:43;;;;;;;7.85;4.35;;;;;;;;;;5044667;28;20071;-65
2023/03/06 16:24:10;;;;;;;6.63;4.20;;;;;;;;;;5045575;28;20160;-65
2023/03/06 16:26:36;;;;;;;7.63;3.83;;;;;;;;;;5044649;28;20083;-65
2023/03/06 16:29:02;;;;;;;6.00;4.03;;;;;;;;;;5024451;28;20072;-64
2023/03/06 16:31:28;;;;;;;6.28;3.40;;;;;;;;;;5048370;28;20371;-64